Time;durP1;ratioP1;P1;durP2;ratioP2;P2;SDS_P1;SDS_P2;PMS_P1;PMS_P2;Temp;Humidity;BMP_temperature;BMP_pressure;BME280_temperature;BME280_humidity;BME280_pressure;Samples;Min_cycle;Max_cycle;Signal;HPM_P1;HPM_P2
2022/12/26 00:01:20;;;;;;;;;;;;;;;8.87;82.65;100721.13;5068340;28;19920;-61
2022/12/26 00:03:46;;;;;;;;;;;;;;;8.85;82.84;100735.19;5064120;28;19951;-60
2022/12/26 00:06:16;;;;;;;;;;;;;;;8.89;82.50;100722.78;5045690;28;19932;-61
2022/12/26 00:08:42;;;;;;;;;;;;;;;8.92;82.61;100722.63;5063669;28;20426;-61
2022/12/26 00:11:07;;;;;;;;;;;;;;;8.92;82.58;100706.03;5071168;28;19920;-59
2022/12/26 00:13:32;;;;;;;;;;;;;;;8.93;82.65;100694.59;5069802;28;19943;-60
2022/12/26 00:15:58;;;;;;;;;;;;;;;8.95;82.44;100684.88;5069344;28;19928;-61
2022/12/26 00:18:26;;;;;;;;;;;;;;;8.96;82.65;100697.06;5065206;28;19920;-59
2022/12/26 00:20:51;;;;;;;;;;;;;;;8.97;82.68;100704.00;5063677;28;20394;-62
2022/12/26 00:23:17;;;;;;;;;;;;;;;9.00;82.64;100693.34;5063617;28;19928;-60
2022/12/26 00:25:42;;;;;;;;;;;;;;;9.00;82.69;100682.84;5047195;28;19920;-60
2022/12/26 00:28:08;;;;;;;;;;;;;;;9.00;82.72;100685.47;5063696;28;20038;-62
2022/12/26 00:30:36;;;;;;;;;;;;;;;8.97;82.95;100693.50;5067588;28;19923;-62
2022/12/26 00:33:01;;;;;;;;;;;;;;;8.96;83.12;100683.94;5068672;28;19924;-60
2022/12/26 00:35:26;;;;;;;;;;;;;;;8.98;83.19;100687.34;5072390;28;20003;-60
2022/12/26 00:37:51;;;;;;;;;;;;;;;8.98;83.42;100674.22;5066316;28;19920;-60
2022/12/26 00:40:17;;;;;;;;;;;;;;;9.00;83.36;100672.34;5060614;28;19971;-61
2022/12/26 00:42:42;;;;;;;;;;;;;;;9.03;83.40;100661.69;5063579;28;19916;-61
2022/12/26 00:45:08;;;;;;;;;;;;;;;9.04;83.48;100655.50;5067770;28;19916;-60
2022/12/26 00:47:33;;;;;;;;;;;;;;;9.06;83.46;100656.28;5065512;28;20007;-59
2022/12/26 00:49:58;;;;;;;;;;;;;;;9.07;83.72;100652.72;5067518;28;19917;-62
2022/12/26 00:52:24;;;;;;;;;;;;;;;9.06;83.71;100651.03;5066328;28;19924;-61
2022/12/26 00:54:49;;;;;;;;;;;;;;;9.08;83.83;100649.19;5070969;28;19916;-61
2022/12/26 00:57:14;;;;;;;;;;;;;;;9.09;83.65;100645.63;5065410;28;19912;-58
2022/12/26 00:59:40;;;;;;;;;;;;;;;9.11;83.54;100646.41;5064572;28;19924;-62
2022/12/26 01:02:36;;;;;;;;;;;;;;;9.12;83.74;100652.47;5066418;28;19928;-59
2022/12/26 01:04:50;;;;;;;;;;;;;;;9.12;83.65;100644.59;5067731;28;19928;-60
2022/12/26 01:07:15;;;;;;;;;;;;;;;9.12;83.58;100640.22;5066625;28;19924;-60
2022/12/26 01:09:41;;;;;;;;;;;;;;;9.13;83.54;100639.28;5067297;28;19920;-59
2022/12/26 01:12:06;;;;;;;;;;;;;;;9.15;83.47;100640.03;5071399;28;19920;-61
2022/12/26 01:14:31;;;;;;;;;;;;;;;9.16;83.66;100633.00;5070944;28;19954;-60
2022/12/26 01:16:57;;;;;;;;;;;;;;;9.20;83.54;100628.44;5063086;28;19917;-63
2022/12/26 01:19:22;;;;;;;;;;;;;;;9.19;83.77;100613.63;5074336;28;20335;-60
2022/12/26 01:21:47;;;;;;;;;;;;;;;9.21;83.64;100619.63;5056447;28;19966;-60
2022/12/26 01:24:13;;;;;;;;;;;;;;;9.21;83.55;100627.50;5068992;28;19961;-59
2022/12/26 01:26:38;;;;;;;;;;;;;;;9.22;83.74;100613.47;5061632;28;19917;-62
2022/12/26 01:29:03;;;;;;;;;;;;;;;9.19;83.85;100593.47;5065043;28;19964;-61
2022/12/26 01:31:29;;;;;;;;;;;;;;;9.21;83.61;100609.13;5065987;28;20053;-61
2022/12/26 01:33:54;;;;;;;;;;;;;;;9.22;83.44;100608.22;5074572;28;19920;-62
2022/12/26 01:36:19;;;;;;;;;;;;;;;9.21;83.58;100607.38;5067921;28;19932;-60
2022/12/26 01:38:45;;;;;;;;;;;;;;;9.23;83.53;100604.66;5055407;28;19921;-60
2022/12/26 01:41:16;;;;;;;;;;;;;;;9.23;83.63;100600.22;5061167;28;19924;-62
2022/12/26 01:43:53;;;;;;;;;;;;;;;9.22;83.85;100603.81;5064578;28;19917;-58
2022/12/26 01:46:21;;;;;;;;;;;;;;;9.24;83.92;100593.22;5066901;28;19917;-59
2022/12/26 01:48:46;;;;;;;;;;;;;;;9.26;83.89;100604.50;5060603;28;20417;-61
2022/12/26 01:51:12;;;;;;;;;;;;;;;9.30;83.65;100600.78;5058250;28;20395;-61
2022/12/26 01:53:48;;;;;;;;;;;;;;;9.31;83.75;100591.94;5069791;28;20391;-62
2022/12/26 01:56:20;;;;;;;;;;;;;;;9.33;83.92;100599.75;5062783;28;19966;-60
2022/12/26 01:58:57;;;;;;;;;;;;;;;9.35;83.76;100590.84;5062331;28;19920;-57
2022/12/26 02:01:25;;;;;;;;;;;;;;;9.38;83.40;100587.19;5061613;28;19916;-60
2022/12/26 02:06:34;;;;;;;;;;;;;;;9.40;83.36;100586.19;5067209;28;20062;-58
2022/12/26 02:09:00;;;;;;;;;;;;;;;9.42;83.36;100578.22;5043649;28;20015;-60
2022/12/26 02:11:34;;;;;;;;;;;;;;;9.43;83.34;100579.91;5064737;28;19932;-61
2022/12/26 02:14:00;;;;;;;;;;;;;;;9.43;83.59;100579.91;5060588;28;19924;-61
2022/12/26 02:16:26;;;;;;;;;;;;;;;9.41;83.54;100585.28;5061220;28;20492;-60
2022/12/26 02:18:51;;;;;;;;;;;;;;;9.44;83.55;100581.63;5062214;28;19932;-61
2022/12/26 02:21:22;;;;;;;;;;;;;;;9.44;83.49;100581.63;5063439;28;19963;-58
2022/12/26 02:24:06;;;;;;;;;;;;;;;9.44;83.54;100571.97;5067010;28;20292;-62
2022/12/26 02:26:47;;;;;;;;;;;;;;;9.48;83.51;100577.03;5063329;28;19917;-62
2022/12/26 02:29:30;;;;;;;;;;;;;;;9.49;83.52;100578.72;5063603;28;20027;-58
2022/12/26 02:31:59;;;;;;;;;;;;;;;9.51;83.48;100582.13;5064920;28;19920;-62
2022/12/26 02:34:41;;;;;;;;;;;;;;;9.53;83.45;100580.25;5065584;28;19947;-62
2022/12/26 02:37:27;;;;;;;;;;;;;;;9.54;83.34;100566.19;5059963;28;19920;-59
2022/12/26 02:40:02;;;;;;;;;;;;;;;9.55;83.26;100566.09;5058520;28;20416;-61
2022/12/26 02:42:27;;;;;;;;;;;;;;;9.58;83.35;100565.09;5043860;28;19925;-61
2022/12/26 02:47:43;;;;;;;;;;;;;;;9.59;83.24;100564.16;5066581;28;20000;-61
2022/12/26 03:13:11;;;;;;;;;;;;;;;9.65;83.41;100542.78;5072081;28;19973;-60
2022/12/26 03:18:27;;;;;;;;;;;;;;;9.66;83.35;100536.59;5065940;28;19932;-63
2022/12/26 03:20:53;;;;;;;;;;;;;;;9.70;83.51;100548.63;5066434;28;20656;-59
2022/12/26 03:23:19;;;;;;;;;;;;;;;9.72;83.47;100549.41;5066339;28;19916;-62
2022/12/26 03:28:34;;;;;;;;;;;;;;;9.74;83.39;100551.91;5064720;28;20298;-59
2022/12/26 03:31:03;;;;;;;;;;;;;;;9.75;83.37;100558.88;5063701;28;20175;-61
2022/12/26 03:36:30;;;;;;;;;;;;;;;9.76;83.32;100556.16;5066276;28;19928;-61
2022/12/26 03:39:07;;;;;;;;;;;;;;;9.79;83.11;100555.16;5060467;28;19921;-61
2022/12/26 04:44:10;;;;;;;;;;;;;;;10.04;82.79;100570.34;5063996;28;20404;-60
2022/12/26 04:46:44;;;;;;;;;;;;;;;10.06;82.94;100575.50;5063996;28;19920;-59
2022/12/26 04:51:58;;;;;;;;;;;;;;;10.10;82.76;100584.06;5063291;28;20015;-62
2022/12/26 04:54:24;;;;;;;;;;;;;;;10.11;82.68;100575.22;5069054;28;19920;-62
2022/12/26 04:56:49;;;;;;;;;;;;;;;10.11;82.62;100578.72;5061605;28;20291;-59
2022/12/26 04:59:15;;;;;;;;;;;;;;;10.08;82.78;100581.53;5051668;28;20367;-61
2022/12/26 05:09:59;;;;;;;;;;;;;;;10.11;82.97;100591.00;5056052;28;19924;-60
2022/12/26 05:12:24;;;;;;;;;;;;;;;10.11;83.10;100588.38;5036335;28;19921;-61
2022/12/26 05:14:49;;;;;;;;;;;;;;;10.12;83.24;100590.06;5057848;28;19921;-62
2022/12/26 05:30:59;;;;;;;;;;;;;;;10.16;83.49;100594.22;5056098;28;19971;-62
2022/12/26 05:36:09;;;;;;;;;;;;;;;10.16;83.57;100588.97;5061612;28;19927;-62
2022/12/26 05:38:35;;;;;;;;;;;;;;;10.15;83.50;100593.34;5066623;28;20333;-62
2022/12/26 05:41:00;;;;;;;;;;;;;;;10.17;83.52;100591.50;5063836;28;20445;-60
2022/12/26 05:43:25;;;;;;;;;;;;;;;10.14;83.70;100596.91;5066066;28;19967;-63
2022/12/26 05:45:51;;;;;;;;;;;;;;;10.15;83.63;100598.63;5069056;28;19916;-62
2022/12/26 05:48:16;;;;;;;;;;;;;;;10.16;83.65;100604.75;5063631;28;19920;-63
2022/12/26 05:50:41;;;;;;;;;;;;;;;10.17;83.73;100609.06;5068720;28;19924;-62
2022/12/26 05:53:07;;;;;;;;;;;;;;;10.12;84.23;100603.22;5061515;28;19921;-64
2022/12/26 05:55:32;;;;;;;;;;;;;;;10.13;84.24;100610.16;5066369;28;19963;-63
2022/12/26 05:58:01;;;;;;;;;;;;;;;10.11;84.64;100607.63;5065978;28;20308;-62
2022/12/26 06:00:27;;;;;;;;;;;;;;;10.13;84.53;100610.16;5061167;28;20496;-62
2022/12/26 06:02:52;;;;;;;;;;;;;;;10.12;84.82;100605.84;5066281;28;19921;-62
2022/12/26 06:05:17;;;;;;;;;;;;;;;10.11;85.04;100610.28;5059538;28;19946;-60
2022/12/26 06:07:43;;;;;;;;;;;;;;;10.13;84.89;100610.16;5065734;28;19921;-62
2022/12/26 06:10:08;;;;;;;;;;;;;;;10.12;85.07;100605.84;5061332;28;19923;-60
2022/12/26 06:12:34;;;;;;;;;;;;;;;10.11;85.01;100597.13;5065550;28;19932;-62
2022/12/26 06:14:59;;;;;;;;;;;;;;;10.12;85.03;100600.59;5060349;28;19924;-62
2022/12/26 06:17:25;;;;;;;;;;;;;;;10.14;84.76;100598.72;5059773;28;20282;-59
2022/12/26 06:19:50;;;;;;;;;;;;;;;10.10;84.81;100605.94;5059406;28;19928;-57
2022/12/26 06:22:16;;;;;;;;;;;;;;;10.06;85.08;100610.50;5042841;28;19924;-63
2022/12/26 06:24:41;;;;;;;;;;;;;;;10.06;84.85;100615.75;5047371;28;20371;-59
2022/12/26 06:27:06;;;;;;;;;;;;;;;10.09;84.59;100617.41;5065441;28;19921;-60
2022/12/26 06:29:31;;;;;;;;;;;;;;;10.06;84.54;100615.75;5066848;28;19916;-61
2022/12/26 06:31:57;;;;;;;;;;;;;;;10.09;84.54;100625.28;5066338;28;19920;-59
2022/12/26 06:34:26;;;;;;;;;;;;;;;10.08;84.55;100628.84;5062065;28;21436;-60
2022/12/26 06:36:51;;;;;;;;;;;;;;;10.10;84.54;100639.25;5059590;28;19925;-62
2022/12/26 06:39:17;;;;;;;;;;;;;;;10.11;84.21;100639.19;5062448;28;20062;-58
2022/12/26 06:41:42;;;;;;;;;;;;;;;10.10;84.28;100641.88;5062789;28;19974;-61
2022/12/26 06:44:08;;;;;;;;;;;;;;;10.11;84.25;100633.06;5065823;28;19921;-59
2022/12/26 06:46:34;;;;;;;;;;;;;;;10.11;84.07;100633.94;5042331;28;20008;-57
2022/12/26 06:48:59;;;;;;;;;;;;;;;10.11;84.32;100623.41;5067158;28;21144;-64
2022/12/26 06:51:25;;;;;;;;;;;;;;;10.09;84.22;100630.53;5057460;28;19974;-64
2022/12/26 06:53:51;;;;;;;;;;;;;;;10.16;84.17;100620.50;5058208;28;19935;-60
2022/12/26 06:56:21;;;;;;;;;;;;;;;10.17;84.01;100622.22;5059677;28;19967;-61
2022/12/26 06:58:47;;;;;;;;;;;;;;;10.16;84.04;100631.03;5067928;28;20277;-60
2022/12/26 07:01:14;;;;;;;;;;;;;;;10.19;83.98;100631.69;5043139;28;20303;-61
2022/12/26 07:03:40;;;;;;;;;;;;;;;10.21;83.73;100628.97;5061196;28;19920;-62
2022/12/26 07:06:06;;;;;;;;;;;;;;;10.22;83.82;100628.03;5062491;28;19913;-64
2022/12/26 07:08:31;;;;;;;;;;;;;;;10.26;83.73;100641.88;5065269;28;19943;-62
2022/12/26 07:10:56;;;;;;;;;;;;;;;10.24;83.60;100647.19;5063834;28;20391;-58
2022/12/26 07:13:22;;;;;;;;;;;;;;;10.25;83.78;100646.25;5061385;28;20307;-61
2022/12/26 07:15:47;;;;;;;;;;;;;;;10.24;83.79;100654.25;5050673;28;20024;-62
2022/12/26 07:18:12;;;;;;;;;;;;;;;10.22;83.89;100660.44;5065538;28;19935;-60
2022/12/26 07:20:38;;;;;;;;;;;;;;;10.21;83.88;100671.03;5059735;28;19962;-60
2022/12/26 07:23:03;;;;;;;;;;;;;;;10.20;83.86;100674.63;5055387;28;20375;-62
2022/12/26 07:25:28;;;;;;;;;;;;;;;10.17;84.02;100691.41;5060998;28;19970;-61
2022/12/26 07:27:54;;;;;;;;;;;;;;;10.14;84.49;100686.31;5042560;28;19920;-62
2022/12/26 07:30:19;;;;;;;;;;;;;;;10.16;84.44;100688.88;5056308;28;20342;-58
2022/12/26 07:32:44;;;;;;;;;;;;;;;10.16;84.19;100688.88;5061831;28;20024;-61
2022/12/26 07:35:10;;;;;;;;;;;;;;;10.12;84.57;100696.09;5063377;28;19921;-62
2022/12/26 07:37:35;;;;;;;;;;;;;;;10.15;84.22;100697.69;5067129;28;19963;-61
2022/12/26 07:40:01;;;;;;;;;;;;;;;10.16;83.89;100702.03;5067199;28;19932;-60
2022/12/26 07:42:26;;;;;;;;;;;;;;;10.16;83.85;100702.03;5073462;28;19920;-60
2022/12/26 07:44:51;;;;;;;;;;;;;;;10.17;84.02;100701.09;5073371;28;19919;-60
2022/12/26 07:47:16;;;;;;;;;;;;;;;10.11;84.13;100702.28;5067921;28;19917;-63
2022/12/26 07:49:42;;;;;;;;;;;;;;;10.11;84.47;100702.28;5076819;28;19921;-63
2022/12/26 07:52:07;;;;;;;;;;;;;;;10.03;84.72;100705.34;5069546;28;20558;-61
2022/12/26 07:54:33;;;;;;;;;;;;;;;9.99;85.13;100708.22;5066359;28;20418;-60
2022/12/26 07:56:58;;;;;;;;;;;;;;;9.99;85.11;100714.34;5067973;28;20400;-60
2022/12/26 07:59:23;;;;;;;;;;;;;;;10.06;84.92;100709.56;5055745;28;19919;-62
2022/12/26 08:01:48;;;;;;;;;;;;;;;10.10;84.55;100713.75;5070253;28;20407;-62
2022/12/26 08:04:14;;;;;;;;;;;;;;;10.14;84.23;100722.28;5067868;28;19936;-63
2022/12/26 08:06:39;;;;;;;;;;;;;;;10.14;84.14;100723.13;5064788;28;20022;-61
2022/12/26 08:09:05;;;;;;;;;;;;;;;10.17;83.85;100725.59;5062719;28;19935;-62
2022/12/26 08:11:33;;;;;;;;;;;;;;;10.20;83.67;100721.97;5064447;28;19921;-59
2022/12/26 08:13:59;;;;;;;;;;;;;;;10.23;83.42;100719.13;5059844;28;19927;-63
2022/12/26 08:16:25;;;;;;;;;;;;;;;10.23;83.33;100732.28;5064666;28;19924;-64
2022/12/26 08:18:50;;;;;;;;;;;;;;;10.19;83.30;100730.78;5070381;28;19917;-61
2022/12/26 08:21:15;;;;;;;;;;;;;;;10.22;83.00;100723.56;5065788;28;20363;-61
2022/12/26 08:23:41;;;;;;;;;;;;;;;10.22;82.86;100733.22;5063993;28;20031;-61
2022/12/26 08:26:08;;;;;;;;;;;;;;;10.27;82.74;100727.72;5067317;28;20287;-60
2022/12/26 08:28:33;;;;;;;;;;;;;;;10.28;82.30;100727.63;5057216;28;19916;-62
2022/12/26 08:30:59;;;;;;;;;;;;;;;10.24;82.07;100726.09;5061065;28;19916;-62
2022/12/26 08:33:24;;;;;;;;;;;;;;;10.27;82.17;100732.97;5061502;28;20390;-63
2022/12/26 08:35:50;;;;;;;;;;;;;;;10.28;81.96;100738.13;5059825;28;19932;-61
2022/12/26 08:38:15;;;;;;;;;;;;;;;10.25;82.04;100735.69;5069342;28;19927;-61
2022/12/26 08:40:40;;;;;;;;;;;;;;;10.30;82.10;100733.66;5061572;28;19931;-60
2022/12/26 08:43:06;;;;;;;;;;;;;;;10.35;81.76;100723.72;5068669;28;19935;-61
2022/12/26 08:45:32;;;;;;;;;;;;;;;10.35;81.61;100731.63;5057959;28;19994;-61
2022/12/26 08:47:58;;;;;;;;;;;;;;;10.34;81.39;100724.66;5059399;28;20427;-62
2022/12/26 08:50:24;;;;;;;;;;;;;;;10.35;81.36;100726.34;5058528;28;19936;-62
2022/12/26 08:52:49;;;;;;;;;;;;;;;10.37;81.34;100729.72;5063509;28;19924;-61
2022/12/26 08:55:14;;;;;;;;;;;;;;;10.34;81.25;100731.69;5068093;28;19921;-61
2022/12/26 08:57:40;;;;;;;;;;;;;;;10.25;81.17;100717.25;5063304;28;19932;-60
2022/12/26 09:00:06;;;;;;;;;;;;;;;10.27;80.85;100725.91;5065783;28;19917;-59
2022/12/26 09:02:32;;;;;;;;;;;;;;;10.29;80.74;100742.47;5057489;28;20398;-60
2022/12/26 09:04:57;;;;;;;;;;;;;;;10.33;80.74;100738.72;5064297;28;19920;-61
2022/12/26 09:07:23;;;;;;;;;;;;;;;10.37;80.80;100745.50;5064615;28;19920;-63
2022/12/26 09:09:49;;;;;;;;;;;;;;;10.42;80.75;100747.91;5057059;28;19928;-62
2022/12/26 09:12:14;;;;;;;;;;;;;;;10.40;80.19;100760.31;5057628;28;19936;-63
2022/12/26 09:14:39;;;;;;;;;;;;;;;10.46;80.52;100759.09;5061413;28;19959;-62
2022/12/26 09:17:05;;;;;;;;;;;;;;;10.52;80.19;100761.38;5066212;28;19927;-62
2022/12/26 09:19:31;;;;;;;;;;;;;;;10.56;79.85;100770.78;5059850;28;19917;-63
2022/12/26 09:24:41;;;;;;;;;;;;;;;10.61;78.79;100768.75;5063165;28;19955;-61
2022/12/26 09:27:06;;;;;;;;;;;;;;;10.61;78.79;100760.00;5061371;28;20359;-61
2022/12/26 09:29:32;;;;;;;;;;;;;;;10.60;78.43;100756.53;5061746;28;19963;-61
2022/12/26 09:31:57;;;;;;;;;;;;;;;10.63;78.50;100771.28;5059755;28;19920;-62
2022/12/26 09:34:23;;;;;;;;;;;;;;;10.61;78.53;100758.22;5060254;28;19920;-60
2022/12/26 09:36:48;;;;;;;;;;;;;;;10.66;78.70;100756.16;5060030;28;19962;-62
2022/12/26 09:39:13;;;;;;;;;;;;;;;10.64;78.57;100768.59;5060618;28;19990;-63
2022/12/26 09:41:48;;;;;;;;;;;;;;;10.68;78.73;100766.63;5059038;28;20427;-60
2022/12/26 09:44:24;;;;;;;;;;;;;;;10.72;78.37;100769.91;5054531;28;19916;-63
2022/12/26 09:46:55;;;;;;;;;;;;;;;10.61;78.73;100779.28;5053364;28;19920;-59
2022/12/26 09:49:23;;;;;;;;;;;;;;;10.63;78.74;100772.16;5060420;28;19917;-59
2022/12/26 09:51:50;;;;;;;;;;;;;;;10.64;78.99;100768.59;5049862;28;19931;-60
2022/12/26 09:54:37;;;;;;;;;;;;;;;10.71;78.51;100748.03;5056165;28;19928;-64
2022/12/26 09:57:06;;;;;;;;;;;;;;;10.82;78.39;100760.53;5060037;28;19925;-59
2022/12/26 09:59:36;;;;;;;;;;;;;;;10.77;78.03;100758.19;5059745;28;19916;-63
2022/12/26 10:02:01;;;;;;;;;;;;;;;10.79;77.92;100763.38;5063266;28;19921;-57
2022/12/26 10:04:28;;;;;;;;;;;;;;;10.83;77.61;100752.56;5065910;28;21103;-60
2022/12/26 10:07:12;;;;;;;;;;;;;;;10.88;77.30;100768.09;5058407;28;19920;-59
2022/12/26 10:09:56;;;;;;;;;;;;;;;10.92;77.41;100748.53;5063546;28;19917;-58
2022/12/26 10:12:27;;;;;;;;;;;;;;;10.94;76.95;100751.94;5064098;28;19920;-58
2022/12/26 10:14:56;;;;;;;;;;;;;;;10.95;76.96;100758.91;5045374;28;19927;-66
2022/12/26 10:17:24;;;;;;;;;;;;;;;10.93;76.79;100747.59;5049740;28;19932;-60
2022/12/26 10:20:04;;;;;;;;;;;;;;;10.97;77.06;100750.91;5052204;28;20421;-60
2022/12/26 10:22:30;;;;;;;;;;;;;;;11.02;76.76;100769.03;5056978;28;19921;-60
2022/12/26 10:24:57;;;;;;;;;;;;;;;10.98;76.80;100771.84;5058745;28;20007;-62
2022/12/26 10:27:23;;;;;;;;;;;;;;;11.05;76.46;100779.41;5060381;28;19932;-59
2022/12/26 10:29:55;;;;;;;;;;;;;;;11.05;75.61;100776.78;5060619;28;19952;-61
2022/12/26 10:32:41;;;;;;;;;;;;;;;11.08;75.36;100774.78;5061094;28;19942;-60
2022/12/26 10:35:21;;;;;;;;;;;;;;;11.04;74.46;100764.53;5039821;28;20051;-61
2022/12/26 10:37:47;;;;;;;;;;;;;;;11.05;74.35;100772.34;5057949;28;19935;-60
2022/12/26 10:40:21;;;;;;;;;;;;;;;11.00;74.12;100784.09;5058682;28;19928;-62
2022/12/26 10:42:50;;;;;;;;;;;;;;;11.04;73.99;100775.91;5064217;28;19916;-62
2022/12/26 10:45:17;;;;;;;;;;;;;;;10.99;74.11;100785.88;5051301;28;20299;-61
2022/12/26 10:47:45;;;;;;;;;;;;;;;11.03;74.30;100783.91;5057940;28;19924;-62
2022/12/26 10:50:15;;;;;;;;;;;;;;;11.07;74.34;100785.44;5053251;28;19924;-64
2022/12/26 10:52:40;;;;;;;;;;;;;;;11.06;73.97;100804.81;5065424;28;19920;-61
2022/12/26 10:55:06;;;;;;;;;;;;;;;11.05;73.89;100788.13;5052228;28;20395;-64
2022/12/26 10:57:34;;;;;;;;;;;;;;;11.06;73.99;100784.56;5109656;22;19932;-62
2022/12/26 11:00:01;;;;;;;;;;;;;;;11.12;74.14;100784.22;5060553;28;19928;-68
2022/12/26 11:02:28;;;;;;;;;;;;;;;11.12;73.94;100788.63;5062691;28;19923;-66
2022/12/26 11:05:04;;;;;;;;;;;;;;;11.08;73.78;100787.97;5070441;28;19928;-62
2022/12/26 11:07:32;;;;;;;;;;;;;;;11.03;73.58;100783.91;5065603;28;19924;-64
2022/12/26 11:09:58;;;;;;;;;;;;;;;11.09;73.13;100783.56;5095196;28;19927;-64
2022/12/26 11:12:35;;;;;;;;;;;;;;;11.10;73.18;100775.56;5083950;27;19940;-63
2022/12/26 11:15:04;;;;;;;;;;;;;;;11.04;72.59;100770.66;5103032;27;19915;-64
2022/12/26 11:17:30;;;;;;;;;;;;;;;11.03;72.50;100773.38;5093571;28;19916;-62
2022/12/26 11:20:22;;;;;;;;;;;;;;;10.97;73.04;100772.78;5072279;28;20735;-64
2022/12/26 11:22:48;;;;;;;;;;;;;;;11.00;72.53;100770.91;5096797;27;19988;-64
2022/12/26 11:25:24;;;;;;;;;;;;;;;11.00;72.35;100763.03;5098568;28;20018;-63
2022/12/26 11:27:53;;;;;;;;;;;;;;;10.97;72.31;100764.91;5098169;27;20389;-65
2022/12/26 11:30:22;;;;;;;;;;;;;;;10.92;72.00;100764.34;5099035;27;19926;-62
2022/12/26 11:32:49;;;;;;;;;;;;;;;10.84;72.57;100769.19;5103372;27;20046;-63
2022/12/26 11:35:22;;;;;;;;;;;;;;;10.74;72.94;100768.03;5101169;27;20380;-62
2022/12/26 11:37:55;;;;;;;;;;;;;;;10.75;73.28;100775.00;5101150;27;19920;-65
2022/12/26 11:40:23;;;;;;;;;;;;;;;10.75;73.31;100782.91;5102680;27;19915;-64
2022/12/26 11:42:53;;;;;;;;;;;;;;;10.77;73.42;100788.91;5089959;27;20005;-65
2022/12/26 11:45:24;;;;;;;;;;;;;;;10.75;73.37;100796.06;5096881;27;19928;-63
2022/12/26 11:47:49;;;;;;;;;;;;;;;10.72;73.48;100796.22;5096073;27;20541;-63
2022/12/26 11:50:21;;;;;;;;;;;;;;;10.76;73.67;100798.59;5098883;27;20003;-61
2022/12/26 11:52:47;;;;;;;;;;;;;;;10.73;73.84;100792.66;5101239;27;19966;-64
2022/12/26 11:55:21;;;;;;;;;;;;;;;10.77;73.85;100794.19;5094500;27;19998;-65
2022/12/26 11:57:57;;;;;;;;;;;;;;;10.80;73.72;100789.59;5089873;28;19920;-64
2022/12/26 12:00:23;;;;;;;;;;;;;;;10.80;74.08;100794.03;5090952;28;20421;-63
2022/12/26 12:02:49;;;;;;;;;;;;;;;10.80;74.08;100772.97;5101648;27;19923;-64
2022/12/26 12:05:20;;;;;;;;;;;;;;;10.72;74.49;100769.91;5089391;28;19923;-65
2022/12/26 12:08:02;;;;;;;;;;;;;;;10.63;74.81;100769.53;5081637;27;19923;-64
2022/12/26 12:10:43;;;;;;;;;;;;;;;10.65;74.54;100769.41;5095722;27;19919;-64
2022/12/26 12:13:27;;;;;;;;;;;;;;;10.71;74.36;100781.38;5094066;27;20028;-66
2022/12/26 12:15:59;;;;;;;;;;;;;;;10.72;74.35;100788.34;5089617;28;19926;-64
2022/12/26 12:18:50;;;;;;;;;;;;;;;10.73;74.16;100798.78;5088398;27;20735;-65
2022/12/26 12:21:29;;;;;;;;;;;;;;;10.72;74.09;100798.84;5097806;27;19924;-64
2022/12/26 12:24:13;;;;;;;;;;;;;;;10.68;73.95;100791.13;5107811;28;19939;-63
2022/12/26 12:26:45;;;;;;;;;;;;;;;10.68;73.97;100785.88;5097481;28;19931;-64
2022/12/26 12:29:10;;;;;;;;;;;;;;;10.66;74.13;100771.13;5084736;27;19977;-63
2022/12/26 12:31:45;;;;;;;;;;;;;;;10.62;73.86;100773.09;5087619;27;20457;-68
2022/12/26 12:34:23;;;;;;;;;;;;;;;10.62;73.80;100765.19;5076810;28;19920;-65
2022/12/26 12:37:07;;;;;;;;;;;;;;;10.60;73.96;100787.25;5086022;28;20727;-64
2022/12/26 12:39:47;;;;;;;;;;;;;;;10.44;74.38;100766.22;5087036;27;19923;-64
2022/12/26 12:42:15;;;;;;;;;;;;;;;10.50;74.32;100773.78;5102337;28;19919;-64
2022/12/26 12:44:44;;;;;;;;;;;;;;;10.60;74.22;100767.06;5101154;27;19955;-64
2022/12/26 12:47:24;;;;;;;;;;;;;;;10.58;73.88;100763.66;5105485;27;19919;-65
2022/12/26 12:49:56;;;;;;;;;;;;;;;10.61;74.08;100763.50;5108039;27;19923;-66
2022/12/26 12:52:40;;;;;;;;;;;;;;;10.64;74.08;100773.84;5099360;27;20334;-63
2022/12/26 12:55:24;;;;;;;;;;;;;;;10.65;74.19;100761.53;5101267;28;20410;-67
2022/12/26 12:57:50;;;;;;;;;;;;;;;10.63;74.25;100756.34;5102699;27;21871;-65
2022/12/26 13:00:18;;;;;;;;;;;;;;;10.65;73.84;100759.75;5077100;28;20023;-63
2022/12/26 13:02:56;;;;;;;;;;;;;;;10.70;73.99;100761.25;5103327;27;19939;-66
2022/12/26 13:05:27;;;;;;;;;;;;;;;10.63;73.99;100760.75;5100044;28;19916;-65
2022/12/26 13:08:07;;;;;;;;;;;;;;;10.66;73.98;100765.84;5095215;27;19919;-65
2022/12/26 13:10:34;;;;;;;;;;;;;;;10.65;74.07;100770.28;5099518;27;20382;-65
2022/12/26 13:13:23;;;;;;;;;;;;;;;10.68;73.82;100766.63;5099515;28;19931;-64
2022/12/26 13:15:51;;;;;;;;;;;;;;;10.72;73.87;100760.25;5088894;28;19981;-65
2022/12/26 13:18:18;;;;;;;;;;;;;;;10.71;73.93;100765.59;5100346;28;19992;-65
2022/12/26 13:20:45;;;;;;;;;;;;;;;10.68;73.79;100764.81;5086161;28;19924;-64
2022/12/26 13:26:07;;;;;;;;;;;;;;;10.69;73.80;100773.56;5102582;27;19927;-64
2022/12/26 13:28:37;;;;;;;;;;;;;;;10.74;73.62;100775.94;5106930;28;19938;-67
2022/12/26 13:31:02;;;;;;;;;;;;;;;10.74;73.76;100779.41;5097631;28;19998;-66
2022/12/26 13:33:28;;;;;;;;;;;;;;;10.75;73.75;100775.84;5100619;28;20371;-67
2022/12/26 13:35:56;;;;;;;;;;;;;;;10.77;73.47;100770.50;5098112;27;19924;-66
2022/12/26 13:38:22;;;;;;;;;;;;;;;10.80;73.83;100773.78;5099307;28;19978;-67
2022/12/26 13:43:53;;;;;;;;;;;;;;;10.81;73.76;100769.41;5094724;28;19928;-67
2022/12/26 13:43:58;;;;;;;;;;;;;;;10.86;73.36;100777.84;5099670;28;19926;-66
2022/12/26 13:46:51;;;;;;;;;;;;;;;10.88;73.37;100773.34;5102216;28;20461;-62
2022/12/26 13:49:35;;;;;;;;;;;;;;;10.89;73.29;100771.56;5099108;27;19924;-65
2022/12/26 13:52:10;;;;;;;;;;;;;;;10.85;73.16;100778.78;5101417;27;20029;-66
2022/12/26 13:54:36;;;;;;;;;;;;;;;10.76;73.42;100771.44;5100025;27;19939;-63
2022/12/26 13:57:04;;;;;;;;;;;;;;;10.71;73.63;100768.22;5098632;28;19970;-63
2022/12/26 13:59:35;;;;;;;;;;;;;;;10.65;73.66;100772.91;5096265;27;19924;-63
2022/12/26 14:02:20;;;;;;;;;;;;;;;10.61;73.83;100781.91;5093076;27;19926;-67
2022/12/26 14:05:04;;;;;;;;;;;;;;;10.57;74.16;100769.84;5096981;28;20306;-65
2022/12/26 14:07:39;;;;;;;;;;;;;;;10.53;74.24;100781.47;5100383;28;20065;-65
2022/12/26 14:10:12;;;;;;;;;;;;;;;10.47;74.31;100793.22;5102256;28;20282;-66
2022/12/26 14:12:37;;;;;;;;;;;;;;;10.40;74.78;100793.63;5096178;28;19996;-66
2022/12/26 14:15:20;;;;;;;;;;;;;;;10.43;74.93;100796.09;5097766;27;20042;-68
2022/12/26 14:17:48;;;;;;;;;;;;;;;10.43;74.69;100796.09;5089857;28;19923;-67
2022/12/26 14:20:19;;;;;;;;;;;;;;;10.42;75.01;100789.16;5093807;28;20025;-64
2022/12/26 14:22:52;;;;;;;;;;;;;;;10.44;74.89;100797.81;5096972;28;19919;-64
2022/12/26 14:25:43;;;;;;;;;;;;;;;10.42;75.21;100804.94;5101778;27;19919;-64
2022/12/26 14:28:21;;;;;;;;;;;;;;;10.43;75.07;100811.88;5056799;28;19923;-63
2022/12/26 14:30:52;;;;;;;;;;;;;;;10.43;75.41;100809.25;5100380;28;19927;-64
2022/12/26 14:33:22;;;;;;;;;;;;;;;10.47;75.22;100816.06;5091413;28;19921;-61
2022/12/26 14:35:48;;;;;;;;;;;;;;;10.50;75.18;100816.72;5104397;28;19924;-66
2022/12/26 14:38:16;;;;;;;;;;;;;;;10.49;75.16;100811.56;5102752;28;19927;-64
2022/12/26 14:40:56;;;;;;;;;;;;;;;10.45;75.24;100815.28;5088350;28;19927;-63
2022/12/26 14:43:30;;;;;;;;;;;;;;;10.44;75.21;100811.78;5082589;28;20443;-66
2022/12/26 14:45:57;;;;;;;;;;;;;;;10.47;75.20;100816.88;5077969;28;20632;-66
2022/12/26 14:48:22;;;;;;;;;;;;;;;10.47;75.18;100813.41;5096011;28;19923;-66
2022/12/26 14:50:49;;;;;;;;;;;;;;;10.47;75.10;100813.41;5087018;28;19924;-67
2022/12/26 14:53:26;;;;;;;;;;;;;;;10.48;75.02;100815.13;5087067;28;21017;-65
2022/12/26 14:55:52;;;;;;;;;;;;;;;10.49;75.14;100814.19;5091577;28;19927;-66
2022/12/26 14:58:25;;;;;;;;;;;;;;;10.45;75.04;100804.75;5095870;28;19920;-67
2022/12/26 15:00:50;;;;;;;;;;;;;;;10.43;75.20;100802.22;5076540;28;19924;-65